createdAt,value
2023-04-23T00:00:52.364Z,9.61
2023-04-23T00:03:35.760Z,9.55
2023-04-23T00:06:04.500Z,9.52
2023-04-23T00:08:31.437Z,9.48
2023-04-23T00:10:58.259Z,9.46
2023-04-23T00:13:25.156Z,9.44
2023-04-23T00:15:51.672Z,9.42
2023-04-23T00:18:18.001Z,9.41
2023-04-23T00:20:44.503Z,9.41
2023-04-23T00:23:10.755Z,9.40
2023-04-23T00:25:37.048Z,9.40
2023-04-23T00:28:03.526Z,9.38
2023-04-23T00:30:29.805Z,9.33
2023-04-23T00:32:56.235Z,9.28
2023-04-23T00:35:22.703Z,9.23
2023-04-23T00:37:48.995Z,9.16
2023-04-23T00:40:15.312Z,9.07
2023-04-23T00:42:41.875Z,9.01
2023-04-23T00:45:08.361Z,8.97
2023-04-23T00:47:35.151Z,8.86
2023-04-23T00:50:04.144Z,8.72
2023-04-23T00:52:30.466Z,8.65
2023-04-23T00:54:56.832Z,8.59
2023-04-23T00:57:23.623Z,8.54
2023-04-23T00:59:50.104Z,8.51
2023-04-23T01:02:16.605Z,8.46
2023-04-23T01:04:43.465Z,8.44
2023-04-23T01:07:11.836Z,8.43
2023-04-23T01:09:38.322Z,8.42
2023-04-23T01:12:05.148Z,8.41
2023-04-23T01:14:31.887Z,8.39
2023-04-23T01:16:58.708Z,8.38
2023-04-23T01:19:25.132Z,8.37
2023-04-23T01:21:51.502Z,8.34
2023-04-23T01:24:17.751Z,8.26
2023-04-23T01:26:45.252Z,8.15
2023-04-23T01:29:12.327Z,8.02
2023-04-23T01:31:39.231Z,7.87
2023-04-23T01:34:08.675Z,7.74
2023-04-23T01:36:34.994Z,7.62
2023-04-23T01:39:02.122Z,7.50
2023-04-23T01:41:28.670Z,7.38
2023-04-23T01:43:56.524Z,7.27
2023-04-23T01:46:23.044Z,7.20
2023-04-23T01:48:49.496Z,7.15
2023-04-23T01:51:15.986Z,7.04
2023-04-23T01:53:42.355Z,6.93
2023-04-23T01:56:08.957Z,6.82
2023-04-23T01:58:35.465Z,6.76
2023-04-23T02:01:01.874Z,6.69
2023-04-23T02:03:28.670Z,6.62
2023-04-23T02:05:55.624Z,6.56
2023-04-23T02:08:22.202Z,6.51
2023-04-23T02:10:48.773Z,6.46
2023-04-23T02:13:15.149Z,6.44
2023-04-23T02:15:41.504Z,6.47
2023-04-23T02:18:08.193Z,6.55
2023-04-23T02:20:34.497Z,6.56
2023-04-23T02:23:03.907Z,6.54
2023-04-23T02:25:30.286Z,6.49
2023-04-23T02:27:56.750Z,6.45
2023-04-23T02:30:23.260Z,6.43
2023-04-23T02:32:49.833Z,6.39
2023-04-23T02:35:16.794Z,6.36
2023-04-23T02:37:43.291Z,6.34
2023-04-23T02:40:09.835Z,6.29
2023-04-23T02:42:36.220Z,6.28
2023-04-23T02:45:02.568Z,6.25
2023-04-23T02:47:29.563Z,6.25
2023-04-23T02:49:55.902Z,6.30
2023-04-23T02:52:22.272Z,6.33
2023-04-23T02:54:48.694Z,6.35
2023-04-23T02:57:15.023Z,6.40
2023-04-23T02:59:41.789Z,6.44
2023-04-23T03:02:08.344Z,6.43
2023-04-23T03:04:34.743Z,6.35
2023-04-23T03:07:01.102Z,6.26
2023-04-23T03:09:27.913Z,6.23
2023-04-23T03:11:54.315Z,6.24
2023-04-23T03:14:20.553Z,6.28
2023-04-23T03:16:47.265Z,6.34
2023-04-23T03:19:14.282Z,6.37
2023-04-23T03:21:40.574Z,6.39
2023-04-23T03:24:07.235Z,6.41
2023-04-23T03:26:33.633Z,6.35
2023-04-23T03:29:00.008Z,6.28
2023-04-23T03:31:26.406Z,6.21
2023-04-23T03:33:52.930Z,6.14
2023-04-23T03:36:23.718Z,6.09
2023-04-23T03:38:50.282Z,6.06
2023-04-23T03:41:17.514Z,6.03
2023-04-23T03:43:43.889Z,6.02
2023-04-23T03:46:17.972Z,6.00
2023-04-23T03:48:44.439Z,5.98
2023-04-23T03:51:20.627Z,5.98
2023-04-23T03:53:48.887Z,5.98
2023-04-23T03:56:44.431Z,6.03
2023-04-23T03:59:32.637Z,6.10
2023-04-23T04:01:59.209Z,6.16
2023-04-23T04:04:26.078Z,6.22
2023-04-23T04:06:54.163Z,6.30
2023-04-23T04:09:24.099Z,6.39
2023-04-23T04:11:52.879Z,6.47
2023-04-23T04:14:19.888Z,6.54
2023-04-23T04:16:46.299Z,6.62
2023-04-23T04:19:12.709Z,6.71
2023-04-23T04:21:38.970Z,6.80
2023-04-23T04:24:05.534Z,6.91
2023-04-23T04:26:32.114Z,7.03
2023-04-23T04:28:58.643Z,7.15
2023-04-23T04:31:25.384Z,7.27
2023-04-23T04:33:51.686Z,7.41
2023-04-23T04:36:17.999Z,7.52
2023-04-23T04:38:44.328Z,7.63
2023-04-23T04:41:10.622Z,7.73
2023-04-23T04:43:37.209Z,7.82
2023-04-23T04:46:06.603Z,7.95
2023-04-23T04:48:33.730Z,8.09
2023-04-23T04:51:00.034Z,8.21
2023-04-23T04:53:26.349Z,8.32
2023-04-23T04:55:52.664Z,8.38
2023-04-23T04:58:19.101Z,8.42
2023-04-23T05:00:45.653Z,8.47
2023-04-23T05:03:14.125Z,8.58
2023-04-23T05:05:40.933Z,8.70
2023-04-23T05:08:07.230Z,8.77
2023-04-23T05:10:33.701Z,8.86
2023-04-23T05:13:00.110Z,8.95
2023-04-23T05:15:26.851Z,9.08
2023-04-23T05:17:53.351Z,9.21
2023-04-23T05:20:20.180Z,9.34
2023-04-23T05:22:46.833Z,9.47
2023-04-23T05:25:13.347Z,9.54
2023-04-23T05:27:40.083Z,9.65
2023-04-23T05:30:07.600Z,9.78
2023-04-23T05:32:34.080Z,9.91
2023-04-23T05:35:01.171Z,10.05
2023-04-23T05:37:28.048Z,10.15
2023-04-23T05:39:54.409Z,10.27
2023-04-23T05:42:21.184Z,10.38
2023-04-23T05:44:47.601Z,10.48
2023-04-23T05:47:14.025Z,10.59
2023-04-23T05:49:40.414Z,10.74
2023-04-23T05:52:06.970Z,10.87
2023-04-23T05:54:33.304Z,11.01
2023-04-23T05:56:59.665Z,11.12
2023-04-23T05:59:26.152Z,11.24
2023-04-23T06:01:52.479Z,11.35
2023-04-23T06:04:19.176Z,11.50
2023-04-23T06:06:48.496Z,11.67
2023-04-23T06:09:15.185Z,11.84
2023-04-23T06:11:44.006Z,12.02
2023-04-23T06:14:10.593Z,12.20
2023-04-23T06:16:37.013Z,12.37
2023-04-23T06:19:08.729Z,12.54
2023-04-23T06:21:35.259Z,12.67
2023-04-23T06:24:01.633Z,12.82
2023-04-23T06:26:28.019Z,12.99
2023-04-23T06:28:54.883Z,13.16
2023-04-23T06:31:34.991Z,13.34
2023-04-23T06:34:01.324Z,13.51
2023-04-23T06:36:27.945Z,13.68
2023-04-23T06:38:54.237Z,13.85
2023-04-23T06:41:23.886Z,14.04
2023-04-23T06:44:00.382Z,14.26
2023-04-23T06:46:35.622Z,14.46
2023-04-23T06:49:01.974Z,14.64
2023-04-23T06:51:28.412Z,14.79
2023-04-23T06:53:54.709Z,14.98
2023-04-23T06:56:21.153Z,15.16
2023-04-23T06:58:47.496Z,15.34
2023-04-23T07:01:18.609Z,15.50
2023-04-23T07:03:45.354Z,15.64
2023-04-23T07:06:12.255Z,15.80
2023-04-23T07:08:38.581Z,15.96
2023-04-23T07:11:05.037Z,16.10
2023-04-23T07:13:31.500Z,16.22
2023-04-23T07:15:58.029Z,16.38
2023-04-23T07:18:24.365Z,16.53
2023-04-23T07:20:50.669Z,16.67
2023-04-23T07:23:17.101Z,16.83
2023-04-23T07:25:43.552Z,16.99
2023-04-23T07:28:09.902Z,17.09
2023-04-23T07:30:36.345Z,17.20
2023-04-23T07:33:02.788Z,17.34
2023-04-23T07:35:29.215Z,17.44
2023-04-23T07:37:55.969Z,17.52
2023-04-23T07:40:22.781Z,17.59
2023-04-23T07:42:49.510Z,17.65
2023-04-23T07:45:16.039Z,17.73
2023-04-23T07:47:42.401Z,17.83
2023-04-23T07:50:09.208Z,17.91
2023-04-23T07:52:35.830Z,18.00
2023-04-23T07:55:02.315Z,18.11
2023-04-23T07:57:28.780Z,18.20
2023-04-23T07:59:55.399Z,18.30
2023-04-23T08:02:27.228Z,18.38
2023-04-23T08:04:54.029Z,18.47
2023-04-23T08:07:23.762Z,18.56
2023-04-23T08:09:50.103Z,18.66
2023-04-23T08:12:16.550Z,18.76
2023-04-23T08:14:43.322Z,18.85
2023-04-23T08:17:12.867Z,18.93
2023-04-23T08:19:39.378Z,19.00
2023-04-23T08:22:06.043Z,19.06
2023-04-23T08:24:32.530Z,19.11
2023-04-23T08:26:58.963Z,19.18
2023-04-23T08:29:25.519Z,19.23
2023-04-23T08:31:52.069Z,19.24
2023-04-23T08:34:18.532Z,19.27
2023-04-23T08:36:45.096Z,19.39
2023-04-23T08:39:11.649Z,19.50
2023-04-23T08:41:38.918Z,19.62
2023-04-23T08:44:26.324Z,19.74
2023-04-23T08:46:56.314Z,19.77
2023-04-23T08:49:22.780Z,19.73
2023-04-23T08:51:51.524Z,19.76
2023-04-23T08:54:20.842Z,19.82
2023-04-23T08:56:47.500Z,19.85
2023-04-23T08:59:14.502Z,19.96
2023-04-23T09:01:41.203Z,20.03
2023-04-23T09:04:08.332Z,20.06
2023-04-23T09:06:35.587Z,20.14
2023-04-23T09:09:02.444Z,20.28
2023-04-23T09:11:29.295Z,20.35
2023-04-23T09:14:03.658Z,20.35
2023-04-23T09:16:30.379Z,20.42
2023-04-23T09:18:58.123Z,20.47
2023-04-23T09:21:24.668Z,20.53
2023-04-23T09:23:51.247Z,20.61
2023-04-23T09:26:21.499Z,20.70
2023-04-23T09:28:51.025Z,20.79
2023-04-23T09:31:23.866Z,20.83
2023-04-23T09:33:54.093Z,20.96
2023-04-23T09:36:23.645Z,21.11
2023-04-23T09:38:50.153Z,21.21
2023-04-23T09:41:20.154Z,21.25
2023-04-23T09:43:47.167Z,21.29
2023-04-23T09:46:13.602Z,21.30
2023-04-23T09:48:42.844Z,21.41
2023-04-23T09:51:28.998Z,21.82
2023-04-23T09:53:55.581Z,22.15
2023-04-23T09:56:21.979Z,22.39
2023-04-23T09:58:48.290Z,22.72
2023-04-23T10:01:14.731Z,23.12
2023-04-23T10:03:44.350Z,23.63
2023-04-23T10:06:21.711Z,24.04
2023-04-23T10:09:04.913Z,24.46
2023-04-23T10:11:31.396Z,24.68
2023-04-23T10:14:00.565Z,25.05
2023-04-23T10:16:35.580Z,25.43
2023-04-23T10:19:09.113Z,25.81
2023-04-23T10:21:53.455Z,26.09
2023-04-23T10:24:28.241Z,26.40
2023-04-23T10:27:17.696Z,26.71
2023-04-23T10:29:53.586Z,27.05
2023-04-23T10:32:20.582Z,27.19
2023-04-23T10:34:47.317Z,27.40
2023-04-23T10:37:14.323Z,27.61
2023-04-23T10:39:43.302Z,27.79
2023-04-23T10:42:10.014Z,28.08
2023-04-23T10:47:11.154Z,28.94
2023-04-23T10:49:37.960Z,29.34
2023-04-23T10:52:19.619Z,29.64
2023-04-23T10:54:49.352Z,29.91
2023-04-23T10:57:16.053Z,30.19
2023-04-23T10:59:52.844Z,30.31
2023-04-23T11:02:19.338Z,30.46
2023-04-23T11:04:47.046Z,30.49
2023-04-23T11:07:13.960Z,30.81
2023-04-23T11:09:41.758Z,31.43
2023-04-23T11:12:10.112Z,31.93
2023-04-23T11:14:36.536Z,32.28
2023-04-23T11:17:03.957Z,32.69
2023-04-23T11:19:30.333Z,33.12
2023-04-23T11:21:56.865Z,33.37
2023-04-23T11:24:23.606Z,33.64
2023-04-23T11:26:51.463Z,33.98
2023-04-23T11:29:21.529Z,34.03
2023-04-23T11:32:01.575Z,34.08
2023-04-23T11:34:29.496Z,34.38
2023-04-23T11:36:57.733Z,34.77
2023-04-23T11:39:24.100Z,35.13
2023-04-23T11:41:51.018Z,35.31
2023-04-23T11:44:18.526Z,35.43
2023-04-23T11:46:45.795Z,35.71
2023-04-23T11:49:12.834Z,35.96
2023-04-23T11:51:43.143Z,36.48
2023-04-23T11:54:10.214Z,37.10
2023-04-23T11:56:45.827Z,37.41
2023-04-23T11:59:14.705Z,37.85
2023-04-23T12:01:45.393Z,38.09
2023-04-23T12:04:20.041Z,38.12
2023-04-23T12:06:47.374Z,37.87
2023-04-23T12:09:14.532Z,37.67
2023-04-23T12:11:48.386Z,37.73
2023-04-23T12:14:14.976Z,37.82
2023-04-23T12:16:45.421Z,38.24
2023-04-23T12:19:14.846Z,38.57
2023-04-23T12:21:47.593Z,38.82
2023-04-23T12:24:16.829Z,38.84
2023-04-23T12:26:43.269Z,39.21
2023-04-23T12:29:12.098Z,39.56
2023-04-23T12:31:38.653Z,40.06
2023-04-23T12:34:08.892Z,40.42
2023-04-23T12:36:38.226Z,40.53
2023-04-23T12:39:24.493Z,40.90
2023-04-23T12:41:55.543Z,41.32
2023-04-23T12:44:22.175Z,41.56
2023-04-23T12:46:49.387Z,41.62
2023-04-23T12:49:20.026Z,41.92
2023-04-23T12:51:46.597Z,42.03
2023-04-23T12:54:15.241Z,42.09
2023-04-23T12:56:41.739Z,42.52
2023-04-23T12:59:08.341Z,42.90
2023-04-23T13:01:34.866Z,42.94
2023-04-23T13:04:01.219Z,42.70
2023-04-23T13:06:27.610Z,42.27
2023-04-23T13:08:54.248Z,42.25
2023-04-23T13:11:21.233Z,42.67
2023-04-23T13:13:47.942Z,42.68
2023-04-23T13:16:14.713Z,42.20
2023-04-23T13:18:41.203Z,42.56
2023-04-23T13:21:09.208Z,42.68
2023-04-23T13:23:35.789Z,42.61
2023-04-23T13:26:09.278Z,42.85
2023-04-23T13:28:37.186Z,43.15
2023-04-23T13:31:03.646Z,42.12
2023-04-23T13:33:30.286Z,39.95
2023-04-23T13:35:57.396Z,38.15
2023-04-23T13:38:27.382Z,37.26
2023-04-23T13:40:56.180Z,38.82
2023-04-23T13:43:32.543Z,39.83
2023-04-23T13:45:59.110Z,39.32
2023-04-23T13:48:25.563Z,37.49
2023-04-23T13:50:57.108Z,35.84
2023-04-23T13:53:24.185Z,34.71
2023-04-23T13:55:50.917Z,36.31
2023-04-23T13:58:20.524Z,37.96
2023-04-23T14:00:50.218Z,39.19
2023-04-23T14:03:17.114Z,40.23
2023-04-23T14:05:43.669Z,40.70
2023-04-23T14:08:23.857Z,41.13
2023-04-23T14:10:53.712Z,41.34
2023-04-23T14:13:21.717Z,41.35
2023-04-23T14:15:48.207Z,41.79
2023-04-23T14:18:14.618Z,42.02
2023-04-23T14:20:41.338Z,42.18
2023-04-23T14:23:30.852Z,42.10
2023-04-23T14:25:58.270Z,41.43
2023-04-23T14:28:37.034Z,39.07
2023-04-23T14:31:07.044Z,37.48
2023-04-23T14:33:33.458Z,36.03
2023-04-23T14:36:00.054Z,35.11
2023-04-23T14:38:32.405Z,35.55
2023-04-23T14:41:01.232Z,35.84
2023-04-23T14:43:27.727Z,34.91
2023-04-23T14:46:05.863Z,33.90
2023-04-23T14:48:32.440Z,33.21
2023-04-23T14:51:07.731Z,32.72
2023-04-23T14:53:34.271Z,31.90
2023-04-23T14:56:00.684Z,31.04
2023-04-23T14:58:27.209Z,30.47
2023-04-23T15:01:12.396Z,30.34
2023-04-23T15:03:39.453Z,30.65
2023-04-23T15:06:14.726Z,30.00
2023-04-23T15:08:41.754Z,29.47
2023-04-23T15:11:08.301Z,28.80
2023-04-23T15:13:34.719Z,28.29
2023-04-23T15:16:07.400Z,28.80
2023-04-23T15:18:35.129Z,30.00
2023-04-23T15:21:02.707Z,31.04
2023-04-23T15:23:33.052Z,32.76
2023-04-23T15:26:02.980Z,33.97
2023-04-23T15:28:30.334Z,34.73
2023-04-23T15:30:57.951Z,34.75
2023-04-23T15:33:24.683Z,33.02
2023-04-23T15:35:51.397Z,31.33
2023-04-23T15:38:20.517Z,30.11
2023-04-23T15:40:50.183Z,29.17
2023-04-23T15:43:17.159Z,28.32
2023-04-23T15:45:43.790Z,27.52
2023-04-23T15:48:10.169Z,26.82
2023-04-23T15:50:36.610Z,26.30
2023-04-23T15:53:08.468Z,25.71
2023-04-23T15:55:34.973Z,25.32
2023-04-23T15:58:01.541Z,25.06
2023-04-23T16:00:28.063Z,24.83
2023-04-23T16:02:54.988Z,24.46
2023-04-23T16:05:21.512Z,24.21
2023-04-23T16:07:59.174Z,23.98
2023-04-23T16:10:28.823Z,23.77
2023-04-23T16:12:57.793Z,23.59
2023-04-23T16:15:31.610Z,23.41
2023-04-23T16:17:58.108Z,23.18
2023-04-23T16:20:25.172Z,23.03
2023-04-23T16:22:51.762Z,22.90
2023-04-23T16:25:18.725Z,22.76
2023-04-23T16:27:57.513Z,22.68
2023-04-23T16:30:24.121Z,22.67
2023-04-23T16:32:50.638Z,22.58
2023-04-23T16:35:25.577Z,22.42
2023-04-23T16:37:52.184Z,22.29
2023-04-23T16:40:21.648Z,22.17
2023-04-23T16:42:48.041Z,22.05
2023-04-23T16:45:14.452Z,21.92
2023-04-23T16:47:40.798Z,21.77
2023-04-23T16:50:10.003Z,21.65
2023-04-23T16:52:38.253Z,21.57
2023-04-23T16:55:06.294Z,21.46
2023-04-23T16:57:42.895Z,21.28
2023-04-23T17:00:09.563Z,21.05
2023-04-23T17:02:36.671Z,20.91
2023-04-23T17:05:05.664Z,20.74
2023-04-23T17:07:33.313Z,20.53
2023-04-23T17:10:01.324Z,20.43
2023-04-23T17:12:28.393Z,20.34
2023-04-23T17:15:15.044Z,20.24
2023-04-23T17:17:41.692Z,20.14
2023-04-23T17:20:08.635Z,20.05
2023-04-23T17:22:37.815Z,19.97
2023-04-23T17:25:04.360Z,19.88
2023-04-23T17:27:39.883Z,19.81
2023-04-23T17:30:06.614Z,19.73
2023-04-23T17:32:33.191Z,19.64
2023-04-23T17:35:09.282Z,19.53
2023-04-23T17:37:37.255Z,19.43
2023-04-23T17:40:03.992Z,19.33
2023-04-23T17:42:30.690Z,19.19
2023-04-23T17:44:57.323Z,19.03
2023-04-23T17:47:23.754Z,18.84
2023-04-23T17:49:50.395Z,18.66
2023-04-23T17:52:17.577Z,18.52
2023-04-23T17:54:44.480Z,18.42
2023-04-23T17:57:22.878Z,18.36
2023-04-23T17:59:59.609Z,18.24
2023-04-23T18:02:29.360Z,18.12
2023-04-23T18:04:56.230Z,17.98
2023-04-23T18:07:27.058Z,17.89
2023-04-23T18:10:01.910Z,17.84
2023-04-23T18:12:31.807Z,17.76
2023-04-23T18:14:58.264Z,17.68
2023-04-23T18:17:25.484Z,17.60
2023-04-23T18:19:54.683Z,17.50
2023-04-23T18:22:21.193Z,17.38
2023-04-23T18:24:50.785Z,17.27
2023-04-23T18:27:20.425Z,17.14
2023-04-23T18:29:46.972Z,17.05
2023-04-23T18:32:20.869Z,16.97
2023-04-23T18:34:50.823Z,16.90
2023-04-23T18:37:37.120Z,16.82
2023-04-23T18:40:05.549Z,16.74
2023-04-23T18:42:32.427Z,16.66
2023-04-23T18:44:59.116Z,16.59
2023-04-23T18:47:30.285Z,16.53
2023-04-23T18:50:00.516Z,16.44
2023-04-23T18:52:27.115Z,16.27
2023-04-23T18:55:02.748Z,16.09
2023-04-23T18:57:29.908Z,15.97
2023-04-23T18:59:57.428Z,15.92
2023-04-23T19:02:34.382Z,15.88
2023-04-23T19:05:04.309Z,15.86
2023-04-23T19:07:31.095Z,15.81
2023-04-23T19:09:57.587Z,15.78
2023-04-23T19:12:24.020Z,15.79
2023-04-23T19:15:11.161Z,15.84
2023-04-23T19:17:39.878Z,15.89
2023-04-23T19:20:07.408Z,15.89
2023-04-23T19:22:33.935Z,15.88
2023-04-23T19:25:01.857Z,15.87
2023-04-23T19:27:31.377Z,15.87
2023-04-23T19:29:58.166Z,15.89
2023-04-23T19:32:24.887Z,15.90
2023-04-23T19:34:51.417Z,15.90
2023-04-23T19:37:20.557Z,15.90
2023-04-23T19:39:56.516Z,15.83
2023-04-23T19:42:23.162Z,15.80
2023-04-23T19:44:49.864Z,15.80
2023-04-23T19:47:16.543Z,15.77
2023-04-23T19:49:43.692Z,15.74
2023-04-23T19:52:18.959Z,15.72
2023-04-23T19:54:45.497Z,15.61
2023-04-23T19:57:12.029Z,15.48
2023-04-23T19:59:41.855Z,15.39
2023-04-23T20:02:08.549Z,15.30
2023-04-23T20:04:35.036Z,15.16
2023-04-23T20:07:01.635Z,15.04
2023-04-23T20:09:28.308Z,14.94
2023-04-23T20:11:54.829Z,14.83
2023-04-23T20:14:21.159Z,14.73
2023-04-23T20:16:49.996Z,14.60
2023-04-23T20:19:16.626Z,14.51
2023-04-23T20:21:42.979Z,14.48
2023-04-23T20:24:09.766Z,14.44
2023-04-23T20:26:36.829Z,14.43
2023-04-23T20:29:03.607Z,14.41
2023-04-23T20:31:30.541Z,14.37
2023-04-23T20:33:57.438Z,14.30
2023-04-23T20:36:24.248Z,14.28
2023-04-23T20:38:50.790Z,14.28
2023-04-23T20:41:17.272Z,14.28
2023-04-23T20:43:43.779Z,14.31
2023-04-23T20:46:10.547Z,14.28
2023-04-23T20:48:36.933Z,14.22
2023-04-23T20:51:03.499Z,14.20
2023-04-23T20:53:30.560Z,14.19
2023-04-23T20:55:59.351Z,14.21
2023-04-23T20:58:25.822Z,14.21
2023-04-23T21:00:52.802Z,14.20
2023-04-23T21:03:19.376Z,14.19
2023-04-23T21:05:46.055Z,14.19
2023-04-23T21:08:12.608Z,14.19
2023-04-23T21:10:39.574Z,14.20
2023-04-23T21:13:06.790Z,14.21
2023-04-23T21:15:33.267Z,14.21
2023-04-23T21:17:59.922Z,14.19
2023-04-23T21:20:26.520Z,14.16
2023-04-23T21:22:53.270Z,14.13
2023-04-23T21:25:19.685Z,14.09
2023-04-23T21:27:48.456Z,14.03
2023-04-23T21:30:30.448Z,13.95
2023-04-23T21:32:56.912Z,13.89
2023-04-23T21:35:23.244Z,13.83
2023-04-23T21:37:49.651Z,13.72
2023-04-23T21:40:16.008Z,13.56
2023-04-23T21:42:42.757Z,13.44
2023-04-23T21:45:09.288Z,13.38
2023-04-23T21:47:35.619Z,13.32
2023-04-23T21:50:02.039Z,13.27
2023-04-23T21:52:28.400Z,13.22
2023-04-23T21:54:54.895Z,13.14
2023-04-23T21:57:21.283Z,13.06
2023-04-23T21:59:47.983Z,12.98
2023-04-23T22:02:14.876Z,12.86
2023-04-23T22:04:41.431Z,12.77
2023-04-23T22:07:07.814Z,12.65
2023-04-23T22:09:34.114Z,12.54
2023-04-23T22:12:02.579Z,12.48
2023-04-23T22:14:29.271Z,12.43
2023-04-23T22:17:06.163Z,12.41
2023-04-23T22:19:37.917Z,12.39
2023-04-23T22:22:04.459Z,12.37
2023-04-23T22:24:30.962Z,12.32
2023-04-23T22:26:59.632Z,12.29
2023-04-23T22:29:26.336Z,12.29
2023-04-23T22:31:52.915Z,12.26
2023-04-23T22:34:19.320Z,12.22
2023-04-23T22:36:50.540Z,12.18
2023-04-23T22:39:16.997Z,12.13
2023-04-23T22:41:43.344Z,12.08
2023-04-23T22:44:10.023Z,12.06
2023-04-23T22:46:36.634Z,12.03
2023-04-23T22:49:03.125Z,11.98
2023-04-23T22:51:29.533Z,11.88
2023-04-23T22:53:55.825Z,11.80
2023-04-23T22:56:22.181Z,11.72
2023-04-23T22:58:48.572Z,11.67
2023-04-23T23:01:14.895Z,11.66
2023-04-23T23:03:41.213Z,11.63
2023-04-23T23:06:07.725Z,11.59
2023-04-23T23:08:34.036Z,11.56
2023-04-23T23:11:00.369Z,11.50
2023-04-23T23:13:26.708Z,11.49
2023-04-23T23:15:55.713Z,11.44
2023-04-23T23:18:22.122Z,11.36
2023-04-23T23:20:48.465Z,11.30
2023-04-23T23:23:14.868Z,11.27
2023-04-23T23:25:41.154Z,11.24
2023-04-23T23:28:07.567Z,11.22
2023-04-23T23:30:34.065Z,11.20
2023-04-23T23:33:00.471Z,11.16
2023-04-23T23:35:26.818Z,11.14
2023-04-23T23:37:53.079Z,11.16
2023-04-23T23:40:19.439Z,11.15
2023-04-23T23:42:45.779Z,11.12
2023-04-23T23:45:12.162Z,11.05
2023-04-23T23:47:38.561Z,10.99
2023-04-23T23:50:08.062Z,10.94
2023-04-23T23:52:34.438Z,10.90
2023-04-23T23:55:00.735Z,10.82
2023-04-23T23:57:27.060Z,10.74
2023-04-23T23:59:53.398Z,10.70
